createdAt,value
2023-12-13T00:00:39.330Z,10.20
2023-12-13T00:01:39.579Z,10.30
2023-12-13T00:02:39.668Z,9.40
2023-12-13T00:03:39.934Z,10.50
2023-12-13T00:04:40.068Z,10.20
2023-12-13T00:05:40.289Z,10.70
2023-12-13T00:06:40.444Z,10.50
2023-12-13T00:07:40.674Z,9.90
2023-12-13T00:08:40.797Z,10.60
2023-12-13T00:09:40.996Z,9.50
2023-12-13T00:10:41.214Z,10.70
2023-12-13T00:11:41.404Z,10.90
2023-12-13T00:12:41.553Z,9.30
2023-12-13T00:13:41.778Z,11.30
2023-12-13T00:14:41.918Z,10.80
2023-12-13T00:15:42.080Z,10.30
2023-12-13T00:16:42.281Z,10.30
2023-12-13T00:17:42.539Z,10.00
2023-12-13T00:18:42.708Z,10.80
2023-12-13T00:19:43.316Z,11.00
2023-12-13T00:20:43.009Z,9.90
2023-12-13T00:21:43.201Z,10.70
2023-12-13T00:22:43.430Z,9.50
2023-12-13T00:23:43.544Z,11.30
2023-12-13T00:24:43.757Z,10.10
2023-12-13T00:25:43.987Z,11.00
2023-12-13T00:26:44.097Z,10.30
2023-12-13T00:27:44.308Z,11.10
2023-12-13T00:28:44.612Z,10.70
2023-12-13T00:29:44.678Z,10.20
2023-12-13T00:30:44.914Z,10.40
2023-12-13T00:31:45.120Z,11.10
2023-12-13T00:32:45.295Z,10.10
2023-12-13T00:33:45.477Z,10.90
2023-12-13T00:34:45.646Z,10.00
2023-12-13T00:35:45.812Z,11.30
2023-12-13T00:36:46.018Z,10.60
2023-12-13T00:37:46.243Z,9.70
2023-12-13T00:38:46.356Z,10.00
2023-12-13T00:39:46.550Z,10.10
2023-12-13T00:40:46.848Z,10.40
2023-12-13T00:41:46.938Z,10.70
2023-12-13T00:42:47.107Z,9.70
2023-12-13T00:43:47.336Z,10.30
2023-12-13T00:44:47.513Z,10.30
2023-12-13T00:45:47.686Z,10.40
2023-12-13T00:46:47.994Z,10.30
2023-12-13T00:47:48.132Z,11.20
2023-12-13T00:48:48.308Z,10.90
2023-12-13T00:49:48.478Z,11.20
2023-12-13T00:50:48.618Z,9.40
2023-12-13T00:51:49.775Z,10.40
2023-12-13T00:52:49.066Z,10.60
2023-12-13T00:53:49.206Z,10.10
2023-12-13T00:54:49.388Z,11.20
2023-12-13T00:55:49.622Z,10.90
2023-12-13T00:56:50.676Z,9.80
2023-12-13T00:57:49.908Z,11.30
2023-12-13T00:58:50.098Z,11.20
2023-12-13T00:59:50.253Z,10.30
2023-12-13T01:00:50.493Z,10.20
2023-12-13T01:01:50.679Z,11.60
2023-12-13T01:02:50.884Z,11.20
2023-12-13T01:03:51.029Z,10.90
2023-12-13T01:04:51.290Z,10.50
2023-12-13T01:05:51.395Z,11.60
2023-12-13T01:06:51.552Z,11.50
2023-12-13T01:07:51.829Z,10.50
2023-12-13T01:08:51.914Z,10.00
2023-12-13T01:09:52.131Z,10.80
2023-12-13T01:10:52.353Z,10.60
2023-12-13T01:11:52.478Z,11.80
2023-12-13T01:12:52.633Z,10.70
2023-12-13T01:13:52.874Z,10.30
2023-12-13T01:14:53.045Z,10.50
2023-12-13T01:15:53.212Z,10.70
2023-12-13T01:16:53.465Z,9.30
2023-12-13T01:17:53.602Z,10.40
2023-12-13T01:18:53.869Z,9.60
2023-12-13T01:19:54.013Z,11.00
2023-12-13T01:20:54.160Z,11.60
2023-12-13T01:21:54.323Z,10.50
2023-12-13T01:22:54.626Z,9.20
2023-12-13T01:23:54.738Z,11.20
2023-12-13T01:24:54.918Z,10.10
2023-12-13T01:25:55.082Z,10.70
2023-12-13T01:26:55.296Z,11.60
2023-12-13T01:27:55.502Z,11.10
2023-12-13T01:28:55.798Z,11.80
2023-12-13T01:29:55.833Z,11.80
2023-12-13T01:30:56.235Z,11.00
2023-12-13T01:31:56.249Z,11.40
2023-12-13T01:32:56.495Z,13.40
2023-12-13T01:33:56.605Z,11.00
2023-12-13T01:34:56.729Z,11.50
2023-12-13T01:35:56.922Z,11.20
2023-12-13T01:36:57.120Z,9.90
2023-12-13T01:37:57.376Z,11.50
2023-12-13T01:38:57.467Z,11.20
2023-12-13T01:39:57.740Z,11.90
2023-12-13T01:41:11.620Z,11.40
2023-12-13T01:41:59.054Z,10.90
2023-12-13T01:42:58.214Z,12.00
2023-12-13T01:43:58.384Z,11.70
2023-12-13T01:44:58.593Z,10.60
2023-12-13T01:45:58.798Z,12.40
2023-12-13T01:46:58.960Z,11.30
2023-12-13T01:49:14.379Z,11.00
2023-12-13T01:50:14.413Z,10.70
2023-12-13T01:51:14.604Z,11.40
2023-12-13T01:52:14.788Z,11.90
2023-12-13T01:53:14.967Z,10.90
2023-12-13T01:54:15.145Z,11.30
2023-12-13T01:55:15.333Z,11.00
2023-12-13T01:56:15.487Z,12.40
2023-12-13T01:57:15.692Z,11.70
2023-12-13T01:58:15.870Z,11.50
2023-12-13T01:59:16.094Z,12.30
2023-12-13T02:00:16.217Z,11.20
2023-12-13T02:01:16.522Z,10.60
2023-12-13T02:02:16.628Z,11.40
2023-12-13T02:03:16.884Z,12.00
2023-12-13T02:04:17.022Z,11.00
2023-12-13T02:05:17.220Z,11.60
2023-12-13T02:06:17.403Z,12.20
2023-12-13T02:07:17.604Z,12.10
2023-12-13T02:08:17.763Z,12.10
2023-12-13T02:09:17.943Z,11.80
2023-12-13T02:10:18.173Z,12.30
2023-12-13T02:11:18.270Z,11.70
2023-12-13T02:12:19.599Z,13.00
2023-12-13T02:13:18.774Z,12.50
2023-12-13T02:14:18.901Z,12.90
2023-12-13T02:15:19.059Z,12.10
2023-12-13T02:16:19.266Z,12.70
2023-12-13T02:17:19.417Z,12.70
2023-12-13T02:18:19.747Z,13.00
2023-12-13T02:19:20.060Z,11.40
2023-12-13T02:20:20.003Z,12.70
2023-12-13T02:21:20.161Z,13.60
2023-12-13T02:22:20.396Z,12.60
2023-12-13T02:23:20.544Z,12.90
2023-12-13T02:24:20.714Z,12.40
2023-12-13T02:25:20.903Z,12.70
2023-12-13T02:26:21.072Z,12.70
2023-12-13T02:27:21.253Z,13.90
2023-12-13T02:28:21.467Z,13.10
2023-12-13T02:29:21.595Z,13.10
2023-12-13T02:30:21.763Z,12.00
2023-12-13T02:31:21.994Z,14.40
2023-12-13T02:32:23.107Z,13.50
2023-12-13T02:33:22.363Z,12.00
2023-12-13T02:34:22.521Z,13.60
2023-12-13T02:35:23.652Z,13.10
2023-12-13T02:36:22.897Z,13.00
2023-12-13T02:37:24.055Z,13.00
2023-12-13T02:38:23.281Z,13.60
2023-12-13T02:39:23.428Z,13.90
2023-12-13T02:40:23.649Z,12.90
2023-12-13T02:41:23.801Z,13.90
2023-12-13T02:42:23.975Z,13.30
2023-12-13T02:43:24.229Z,13.90
2023-12-13T02:44:24.317Z,13.30
2023-12-13T02:45:24.517Z,12.80
2023-12-13T02:46:24.759Z,14.20
2023-12-13T02:47:24.909Z,13.80
2023-12-13T02:48:25.188Z,13.30
2023-12-13T02:49:25.317Z,13.30
2023-12-13T02:50:26.416Z,12.80
2023-12-13T02:51:25.648Z,13.90
2023-12-13T02:52:25.858Z,13.60
2023-12-13T02:53:26.028Z,13.90
2023-12-13T02:54:26.192Z,14.40
2023-12-13T02:55:26.395Z,13.50
2023-12-13T02:56:26.616Z,13.90
2023-12-13T02:57:26.759Z,14.40
2023-12-13T02:58:26.951Z,13.50
2023-12-13T02:59:27.117Z,15.00
2023-12-13T03:00:27.296Z,15.90
2023-12-13T03:01:27.555Z,14.60
2023-12-13T03:02:27.688Z,13.70
2023-12-13T03:03:27.898Z,13.90
2023-12-13T03:04:28.072Z,13.90
2023-12-13T03:05:29.218Z,14.70
2023-12-13T03:06:28.441Z,15.20
2023-12-13T03:07:29.167Z,14.30
2023-12-13T03:08:28.803Z,15.80
2023-12-13T03:09:28.979Z,14.30
2023-12-13T03:10:29.350Z,15.80
2023-12-13T03:11:29.359Z,15.00
2023-12-13T03:12:29.541Z,13.70
2023-12-13T03:13:29.774Z,15.70
2023-12-13T03:14:29.891Z,13.80
2023-12-13T03:15:30.102Z,15.00
2023-12-13T03:16:30.320Z,14.90
2023-12-13T03:17:30.628Z,14.20
2023-12-13T03:18:30.799Z,16.20
2023-12-13T03:19:30.884Z,14.60
2023-12-13T03:20:31.038Z,16.60
2023-12-13T03:21:31.239Z,15.00
2023-12-13T03:22:31.452Z,14.70
2023-12-13T03:23:31.604Z,15.40
2023-12-13T03:24:31.793Z,15.50
2023-12-13T03:25:31.992Z,14.30
2023-12-13T03:26:33.233Z,16.60
2023-12-13T03:27:32.570Z,16.80
2023-12-13T03:28:32.554Z,14.90
2023-12-13T03:29:32.689Z,14.90
2023-12-13T03:30:32.921Z,16.90
2023-12-13T03:31:33.055Z,16.10
2023-12-13T03:32:33.251Z,15.10
2023-12-13T03:33:33.394Z,15.00
2023-12-13T03:34:33.683Z,14.70
2023-12-13T03:35:33.762Z,15.60
2023-12-13T03:36:33.928Z,16.30
2023-12-13T03:37:34.362Z,16.00
2023-12-13T03:38:35.278Z,16.30
2023-12-13T03:39:34.484Z,15.80
2023-12-13T03:40:34.683Z,17.30
2023-12-13T03:41:34.843Z,16.00
2023-12-13T03:42:35.040Z,17.10
2023-12-13T03:43:35.224Z,16.60
2023-12-13T03:44:35.379Z,16.50
2023-12-13T03:45:35.566Z,15.90
2023-12-13T03:46:38.420Z,16.00
2023-12-13T03:47:36.559Z,15.40
2023-12-13T03:48:36.165Z,15.60
2023-12-13T03:49:36.490Z,15.90
2023-12-13T03:50:36.478Z,15.50
2023-12-13T03:51:36.663Z,15.10
2023-12-13T03:52:36.871Z,15.30
2023-12-13T03:53:37.060Z,16.00
2023-12-13T03:54:37.243Z,15.50
2023-12-13T03:55:37.479Z,15.70
2023-12-13T03:56:37.604Z,17.20
2023-12-13T03:57:37.784Z,15.70
2023-12-13T03:58:37.984Z,15.80
2023-12-13T03:59:38.145Z,16.20
2023-12-13T04:00:38.342Z,16.70
2023-12-13T04:01:38.534Z,15.40
2023-12-13T04:02:38.701Z,16.40
2023-12-13T04:03:38.995Z,14.60
2023-12-13T04:04:39.209Z,16.00
2023-12-13T04:05:39.309Z,14.90
2023-12-13T04:06:39.449Z,15.10
2023-12-13T04:07:40.610Z,15.90
2023-12-13T04:08:39.847Z,16.80
2023-12-13T04:09:40.013Z,16.00
2023-12-13T04:10:40.233Z,15.90
2023-12-13T04:11:40.396Z,15.10
2023-12-13T04:12:40.537Z,15.80
2023-12-13T04:13:40.773Z,15.30
2023-12-13T04:14:40.912Z,15.70
2023-12-13T04:15:41.115Z,14.50
2023-12-13T04:16:43.988Z,16.40
2023-12-13T04:17:41.470Z,16.40
2023-12-13T04:18:41.729Z,16.20
2023-12-13T04:19:41.864Z,16.30
2023-12-13T04:20:42.042Z,17.50
2023-12-13T04:21:42.199Z,18.20
2023-12-13T04:22:42.445Z,15.80
2023-12-13T04:23:42.588Z,15.80
2023-12-13T04:24:42.781Z,16.10
2023-12-13T04:25:43.032Z,16.10
2023-12-13T04:26:43.125Z,16.50
2023-12-13T04:27:43.304Z,16.00
2023-12-13T04:28:43.508Z,16.00
2023-12-13T04:29:43.697Z,15.80
2023-12-13T04:30:43.901Z,15.70
2023-12-13T04:31:44.068Z,15.60
2023-12-13T04:32:44.224Z,14.90
2023-12-13T04:33:44.471Z,15.50
2023-12-13T04:34:44.653Z,16.50
2023-12-13T04:35:44.777Z,15.30
2023-12-13T04:36:44.953Z,17.80
2023-12-13T04:37:45.161Z,17.00
2023-12-13T04:38:45.369Z,16.20
2023-12-13T04:39:45.535Z,16.10
2023-12-13T04:40:45.749Z,15.70
2023-12-13T04:41:45.904Z,17.10
2023-12-13T04:42:46.095Z,16.20
2023-12-13T04:43:46.271Z,16.80
2023-12-13T04:44:46.439Z,18.40
2023-12-13T04:45:46.605Z,15.50
2023-12-13T04:46:46.830Z,16.00
2023-12-13T04:47:48.038Z,15.70
2023-12-13T04:48:47.220Z,16.90
2023-12-13T04:49:47.445Z,16.60
2023-12-13T04:50:47.550Z,15.40
2023-12-13T04:51:47.722Z,15.20
2023-12-13T04:52:47.918Z,15.50
2023-12-13T04:53:48.118Z,15.40
2023-12-13T04:54:48.298Z,15.00
2023-12-13T04:55:49.563Z,15.90
2023-12-13T04:56:48.645Z,18.00
2023-12-13T04:57:48.842Z,16.60
2023-12-13T04:58:49.051Z,15.10
2023-12-13T04:59:49.180Z,17.30
2023-12-13T05:00:49.396Z,17.40
2023-12-13T05:01:49.576Z,16.40
2023-12-13T05:02:49.812Z,15.30
2023-12-13T05:03:49.982Z,16.60
2023-12-13T05:04:50.297Z,15.70
2023-12-13T05:05:50.361Z,15.80
2023-12-13T05:06:50.462Z,16.50
2023-12-13T05:07:50.686Z,16.10
2023-12-13T05:08:50.840Z,16.90
2023-12-13T05:09:51.029Z,15.60
2023-12-13T05:10:51.301Z,17.00
2023-12-13T05:11:51.396Z,15.70
2023-12-13T05:12:51.583Z,17.30
2023-12-13T05:13:51.784Z,15.40
2023-12-13T05:14:51.932Z,16.70
2023-12-13T05:15:52.106Z,14.50
2023-12-13T05:16:52.824Z,15.60
2023-12-13T05:17:52.474Z,17.30
2023-12-13T05:18:52.632Z,17.00
2023-12-13T05:19:56.296Z,16.70
2023-12-13T05:20:52.995Z,16.90
2023-12-13T05:21:53.149Z,15.50
2023-12-13T05:22:53.411Z,15.60
2023-12-13T05:23:53.503Z,16.10
2023-12-13T05:24:53.700Z,15.70
2023-12-13T05:25:53.966Z,18.10
2023-12-13T05:26:54.071Z,17.80
2023-12-13T05:27:54.268Z,15.90
2023-12-13T05:28:54.480Z,16.00
2023-12-13T05:29:54.608Z,14.80
2023-12-13T05:30:54.847Z,15.20
2023-12-13T05:31:57.613Z,15.50
2023-12-13T05:32:55.246Z,15.80
2023-12-13T05:33:55.439Z,15.20
2023-12-13T05:34:55.593Z,15.40
2023-12-13T05:35:55.754Z,15.50
2023-12-13T05:36:55.919Z,15.20
2023-12-13T05:37:56.127Z,17.40
2023-12-13T05:38:56.284Z,15.90
2023-12-13T05:39:56.455Z,18.50
2023-12-13T05:40:56.756Z,18.40
2023-12-13T05:41:56.825Z,16.00
2023-12-13T05:42:57.016Z,15.70
2023-12-13T05:43:57.272Z,16.10
2023-12-13T05:44:57.374Z,15.70
2023-12-13T05:45:57.570Z,16.50
2023-12-13T05:46:57.796Z,15.50
2023-12-13T05:47:57.991Z,16.60
2023-12-13T05:48:58.175Z,15.50
2023-12-13T05:49:58.341Z,15.80
2023-12-13T05:50:58.507Z,15.80
2023-12-13T05:51:58.705Z,17.00
2023-12-13T05:52:58.944Z,16.60
2023-12-13T05:53:59.085Z,17.50
2023-12-13T05:54:59.266Z,15.90
2023-12-13T05:55:59.452Z,16.80
2023-12-13T05:56:59.622Z,15.90
2023-12-13T05:57:59.795Z,16.00
2023-12-13T05:59:00.085Z,15.50
2023-12-13T06:00:00.179Z,16.50
2023-12-13T06:01:00.429Z,15.70
2023-12-13T06:02:00.628Z,17.60
2023-12-13T06:03:00.705Z,16.20
2023-12-13T06:04:00.955Z,15.30
2023-12-13T06:05:01.980Z,17.00
2023-12-13T06:06:01.330Z,14.80
2023-12-13T06:07:01.434Z,16.20
2023-12-13T06:08:01.728Z,14.60
2023-12-13T06:09:01.770Z,15.80
2023-12-13T06:10:01.980Z,16.00
2023-12-13T06:11:02.213Z,15.60
2023-12-13T06:12:02.345Z,14.50
2023-12-13T06:13:02.533Z,15.60
2023-12-13T06:14:02.720Z,15.60
2023-12-13T06:15:03.061Z,15.00
2023-12-13T06:16:03.111Z,15.30
2023-12-13T06:17:03.267Z,14.50
2023-12-13T06:18:03.589Z,14.60
2023-12-13T06:19:03.743Z,14.60
2023-12-13T06:20:03.988Z,15.60
2023-12-13T06:21:04.015Z,15.10
2023-12-13T06:22:04.178Z,16.20
2023-12-13T06:23:04.378Z,14.30
2023-12-13T06:24:04.533Z,15.70
2023-12-13T06:25:04.727Z,15.40
2023-12-13T06:26:04.944Z,14.60
2023-12-13T06:27:05.085Z,15.60
2023-12-13T06:28:05.284Z,15.20
2023-12-13T06:29:05.449Z,14.20
2023-12-13T06:30:05.654Z,14.70
2023-12-13T06:31:05.918Z,15.70
2023-12-13T06:32:06.053Z,15.60
2023-12-13T06:33:06.264Z,14.90
2023-12-13T06:34:06.505Z,14.40
2023-12-13T06:35:06.610Z,14.90
2023-12-13T06:36:06.790Z,14.20
2023-12-13T06:37:06.948Z,14.50
2023-12-13T06:38:07.210Z,14.60
2023-12-13T06:39:08.288Z,14.30
2023-12-13T06:40:07.522Z,14.40
2023-12-13T06:41:07.776Z,14.70
2023-12-13T06:42:07.896Z,13.70
2023-12-13T06:43:08.075Z,13.50
2023-12-13T06:44:08.281Z,13.20
2023-12-13T06:45:08.456Z,15.00
2023-12-13T06:46:09.593Z,15.20
2023-12-13T06:47:08.819Z,14.40
2023-12-13T06:48:09.089Z,15.10
2023-12-13T06:49:09.297Z,14.30
2023-12-13T06:50:09.487Z,14.00
2023-12-13T06:51:09.589Z,14.20
2023-12-13T06:52:09.779Z,14.90
2023-12-13T06:53:09.942Z,13.90
2023-12-13T06:54:10.110Z,14.50
2023-12-13T06:55:10.358Z,15.50
2023-12-13T06:56:10.505Z,15.10
2023-12-13T06:57:10.697Z,14.00
2023-12-13T06:58:10.836Z,14.40
2023-12-13T06:59:11.065Z,15.20
2023-12-13T07:00:11.232Z,14.70
2023-12-13T07:01:11.513Z,14.10
2023-12-13T07:02:11.603Z,14.00
2023-12-13T07:03:11.848Z,15.30
2023-12-13T07:04:12.008Z,13.20
2023-12-13T07:05:12.261Z,13.60
2023-12-13T07:06:12.349Z,14.40
2023-12-13T07:07:12.493Z,14.60
2023-12-13T07:08:12.661Z,13.40
2023-12-13T07:09:12.847Z,12.80
2023-12-13T07:10:13.107Z,12.90
2023-12-13T07:11:13.244Z,13.10
2023-12-13T07:12:13.406Z,12.50
2023-12-13T07:13:13.606Z,14.10
2023-12-13T07:14:13.792Z,13.60
2023-12-13T07:15:13.934Z,13.80
2023-12-13T07:16:14.200Z,13.80
2023-12-13T07:17:14.312Z,12.30
2023-12-13T07:18:14.534Z,13.00
2023-12-13T07:19:14.834Z,13.50
2023-12-13T07:20:14.893Z,14.70
2023-12-13T07:21:15.081Z,12.50
2023-12-13T07:22:15.332Z,13.90
2023-12-13T07:23:15.447Z,15.00
2023-12-13T07:24:15.636Z,13.50
2023-12-13T07:25:15.869Z,13.20
2023-12-13T07:26:16.036Z,14.20
2023-12-13T07:27:16.276Z,12.30
2023-12-13T07:28:16.444Z,12.80
2023-12-13T07:29:16.624Z,12.60
2023-12-13T07:30:16.917Z,13.00
2023-12-13T07:31:17.137Z,12.80
2023-12-13T07:32:17.260Z,13.60
2023-12-13T07:33:17.448Z,12.00
2023-12-13T07:34:17.661Z,13.30
2023-12-13T07:35:17.828Z,12.20
2023-12-13T07:36:18.028Z,11.40
2023-12-13T07:37:18.248Z,9.50
2023-12-13T07:38:18.348Z,9.10
2023-12-13T07:39:18.526Z,9.50
2023-12-13T07:40:18.804Z,9.40
2023-12-13T07:41:18.887Z,8.70
2023-12-13T07:42:19.083Z,9.40
2023-12-13T07:43:19.256Z,11.80
2023-12-13T07:44:19.444Z,9.50
2023-12-13T07:45:19.628Z,8.80
2023-12-13T07:46:19.878Z,10.10
2023-12-13T07:47:20.107Z,10.30
2023-12-13T07:48:27.123Z,9.40
2023-12-13T07:49:21.516Z,10.10
2023-12-13T07:50:27.637Z,10.90
2023-12-13T07:51:20.717Z,9.70
2023-12-13T07:52:20.868Z,9.10
2023-12-13T07:53:21.078Z,9.00
2023-12-13T07:54:21.208Z,10.40
2023-12-13T07:55:21.436Z,8.40
2023-12-13T07:56:27.778Z,8.70
2023-12-13T07:57:22.787Z,9.20
2023-12-13T07:58:21.947Z,9.90
2023-12-13T07:59:22.384Z,8.50
2023-12-13T08:01:22.480Z,9.80
2023-12-13T08:02:24.324Z,9.20
2023-12-13T08:03:22.862Z,10.90
2023-12-13T08:04:23.043Z,9.10
2023-12-13T08:05:23.209Z,10.20
2023-12-13T08:06:23.394Z,8.70
2023-12-13T08:07:23.647Z,10.20
2023-12-13T08:08:23.772Z,9.40
2023-12-13T08:09:23.942Z,9.50
2023-12-13T08:10:24.144Z,9.60
2023-12-13T08:11:24.363Z,9.60
2023-12-13T08:12:24.503Z,9.60
2023-12-13T08:13:24.745Z,9.50
2023-12-13T08:14:24.929Z,9.30
2023-12-13T08:15:25.050Z,9.80
2023-12-13T08:16:25.266Z,10.10
2023-12-13T08:17:25.406Z,10.60
2023-12-13T08:18:25.651Z,10.00
2023-12-13T08:19:25.887Z,9.40
2023-12-13T08:20:25.984Z,9.50
2023-12-13T08:21:26.191Z,9.20
2023-12-13T08:22:27.130Z,8.80
2023-12-13T08:23:26.540Z,9.70
2023-12-13T08:24:26.704Z,10.80
2023-12-13T08:25:26.878Z,9.80
2023-12-13T08:26:27.058Z,9.50
2023-12-13T08:27:27.280Z,9.00
2023-12-13T08:28:27.412Z,9.90
2023-12-13T08:29:27.568Z,9.20
2023-12-13T08:30:27.775Z,9.50
2023-12-13T08:31:28.147Z,9.30
2023-12-13T08:32:28.121Z,9.30
2023-12-13T08:33:28.299Z,9.10
2023-12-13T08:34:28.478Z,8.80
2023-12-13T08:35:28.633Z,9.50
2023-12-13T08:36:28.810Z,9.80
2023-12-13T08:37:28.996Z,9.50
2023-12-13T08:38:29.152Z,9.60
2023-12-13T08:39:29.331Z,8.80
2023-12-13T08:40:29.557Z,9.60
2023-12-13T08:41:29.713Z,10.10
2023-12-13T08:42:36.932Z,10.10
2023-12-13T08:43:31.083Z,10.10
2023-12-13T08:44:30.279Z,10.50
2023-12-13T08:45:30.530Z,11.00
2023-12-13T08:46:30.689Z,9.70
2023-12-13T08:47:31.186Z,10.00
2023-12-13T08:48:31.047Z,9.70
2023-12-13T08:49:31.318Z,9.80
2023-12-13T08:50:31.345Z,9.80
2023-12-13T08:51:31.542Z,9.40
2023-12-13T08:52:31.747Z,10.30
2023-12-13T08:53:31.931Z,9.20
2023-12-13T08:54:32.073Z,9.80
2023-12-13T08:55:32.283Z,9.40
2023-12-13T08:56:32.436Z,9.30
2023-12-13T08:57:32.845Z,10.10
2023-12-13T08:58:32.825Z,9.10
2023-12-13T08:59:32.957Z,9.50
2023-12-13T09:00:33.117Z,9.00
2023-12-13T09:01:33.378Z,9.30
2023-12-13T09:02:33.597Z,10.40
2023-12-13T09:03:33.817Z,10.90
2023-12-13T09:04:33.926Z,9.60
2023-12-13T09:05:34.083Z,9.60
2023-12-13T09:06:34.288Z,10.20
2023-12-13T09:07:34.820Z,10.80
2023-12-13T09:08:34.614Z,10.70
2023-12-13T09:09:34.836Z,14.40
2023-12-13T09:10:34.999Z,12.50
2023-12-13T09:11:35.169Z,13.90
2023-12-13T09:12:35.352Z,13.70
2023-12-13T09:13:35.549Z,13.80
2023-12-13T09:14:35.689Z,12.40
2023-12-13T09:15:35.850Z,12.10
2023-12-13T09:16:36.085Z,12.30
2023-12-13T09:17:36.520Z,14.20
2023-12-13T09:18:36.469Z,11.50
2023-12-13T09:19:36.637Z,13.20
2023-12-13T09:20:36.863Z,11.10
2023-12-13T09:21:36.983Z,10.90
2023-12-13T09:22:37.164Z,12.80
2023-12-13T09:23:37.381Z,11.70
2023-12-13T09:24:37.542Z,12.20
2023-12-13T09:25:37.778Z,11.40
2023-12-13T09:26:37.940Z,10.50
2023-12-13T09:27:38.118Z,10.90
2023-12-13T09:28:38.287Z,11.60
2023-12-13T09:29:38.456Z,10.10
2023-12-13T09:30:38.657Z,11.30
2023-12-13T09:31:38.853Z,11.40
2023-12-13T09:32:39.039Z,13.00
2023-12-13T09:33:39.235Z,10.70
2023-12-13T09:34:39.330Z,10.70
2023-12-13T09:35:39.505Z,10.50
2023-12-13T09:36:39.697Z,10.30
2023-12-13T09:37:39.914Z,9.90
2023-12-13T09:38:40.069Z,10.60
2023-12-13T09:39:40.217Z,11.30
2023-12-13T09:40:40.521Z,9.60
2023-12-13T09:41:40.574Z,10.10
2023-12-13T09:42:40.746Z,10.40
2023-12-13T09:43:40.964Z,9.60
2023-12-13T09:44:41.091Z,9.80
2023-12-13T09:45:41.260Z,11.20
2023-12-13T09:46:41.472Z,9.20
2023-12-13T09:47:41.688Z,9.00
2023-12-13T09:48:41.872Z,9.30
2023-12-13T09:49:42.048Z,10.30
2023-12-13T09:50:42.235Z,9.70
2023-12-13T09:51:42.331Z,9.40
2023-12-13T09:52:42.519Z,10.00
2023-12-13T09:53:42.690Z,9.80
2023-12-13T09:54:42.874Z,9.30
2023-12-13T09:55:43.056Z,8.90
2023-12-13T09:56:43.233Z,9.80
2023-12-13T09:57:43.390Z,9.60
2023-12-13T09:58:43.602Z,10.70
2023-12-13T09:59:43.768Z,8.30
2023-12-13T10:00:44.005Z,9.80
2023-12-13T10:01:44.172Z,8.80
2023-12-13T10:02:44.356Z,9.10
2023-12-13T10:03:44.485Z,8.70
2023-12-13T10:04:44.672Z,8.80
2023-12-13T10:05:46.334Z,10.60
2023-12-13T10:06:45.031Z,9.20
2023-12-13T10:07:45.259Z,9.30
2023-12-13T10:08:45.361Z,9.30
2023-12-13T10:09:45.594Z,9.10
2023-12-13T10:10:45.840Z,9.30
2023-12-13T10:11:45.933Z,9.00
2023-12-13T10:12:46.090Z,9.30
2023-12-13T10:13:46.328Z,9.10
2023-12-13T10:14:46.443Z,9.50
2023-12-13T10:15:46.619Z,8.80
2023-12-13T10:16:52.658Z,8.20
2023-12-13T10:17:48.062Z,8.40
2023-12-13T10:18:47.202Z,8.40
2023-12-13T10:19:47.370Z,8.70
2023-12-13T10:20:47.530Z,8.80
2023-12-13T10:21:47.714Z,8.80
2023-12-13T10:22:47.902Z,8.30
2023-12-13T10:23:48.099Z,8.90
2023-12-13T10:24:48.226Z,8.40
2023-12-13T10:25:48.466Z,8.00
2023-12-13T10:26:48.656Z,9.00
2023-12-13T10:27:48.779Z,7.70
2023-12-13T10:28:48.990Z,8.60
2023-12-13T10:29:49.139Z,8.50
2023-12-13T10:30:49.416Z,8.30
2023-12-13T10:31:49.521Z,8.60
2023-12-13T10:32:49.679Z,8.80
2023-12-13T10:33:49.907Z,8.90
2023-12-13T10:34:50.099Z,8.50
2023-12-13T10:35:50.247Z,8.50
2023-12-13T10:36:50.449Z,8.30
2023-12-13T10:37:51.503Z,8.60
2023-12-13T10:38:50.781Z,9.10
2023-12-13T10:39:50.943Z,8.90
2023-12-13T10:40:51.154Z,9.30
2023-12-13T10:41:51.291Z,9.00
2023-12-13T10:42:51.496Z,8.40
2023-12-13T10:43:51.695Z,8.60
2023-12-13T10:44:51.839Z,9.10
2023-12-13T10:45:52.022Z,9.30
2023-12-13T10:46:52.244Z,8.80
2023-12-13T10:47:52.544Z,8.80
2023-12-13T10:48:52.669Z,8.80
2023-12-13T10:49:52.806Z,9.40
2023-12-13T10:50:52.972Z,9.00
2023-12-13T10:51:53.217Z,9.10
2023-12-13T10:52:53.457Z,8.40
2023-12-13T10:53:53.556Z,8.70
2023-12-13T10:54:53.698Z,9.90
2023-12-13T10:55:53.936Z,9.20
2023-12-13T10:56:54.065Z,8.40
2023-12-13T10:57:54.235Z,8.80
2023-12-13T10:58:54.641Z,8.90
2023-12-13T10:59:54.602Z,9.10
2023-12-13T11:00:54.823Z,9.00
2023-12-13T11:01:54.980Z,9.40
2023-12-13T11:02:55.125Z,9.10
2023-12-13T11:03:55.336Z,9.00
2023-12-13T11:04:55.528Z,9.40
2023-12-13T11:05:55.720Z,8.60
2023-12-13T11:06:55.908Z,10.00
2023-12-13T11:07:56.063Z,8.70
2023-12-13T11:08:56.229Z,8.90
2023-12-13T11:09:56.420Z,9.50
2023-12-13T11:10:56.687Z,9.90
2023-12-13T11:11:56.791Z,9.00
2023-12-13T11:12:56.924Z,9.60
2023-12-13T11:13:57.153Z,10.20
2023-12-13T11:14:57.304Z,8.40
2023-12-13T11:15:57.508Z,9.80
2023-12-13T11:16:57.725Z,8.60
2023-12-13T11:17:57.877Z,8.90
2023-12-13T11:18:58.159Z,10.10
2023-12-13T11:19:58.215Z,9.10
2023-12-13T11:20:58.367Z,9.20
2023-12-13T11:21:58.542Z,9.80
2023-12-13T11:22:58.777Z,10.20
2023-12-13T11:23:58.899Z,9.30
2023-12-13T11:24:59.063Z,10.40
2023-12-13T11:25:59.260Z,9.70
2023-12-13T11:26:59.405Z,10.50
2023-12-13T11:27:59.616Z,9.60
2023-12-13T11:28:59.799Z,10.40
2023-12-13T11:29:59.978Z,9.60
2023-12-13T11:31:00.189Z,9.60
2023-12-13T11:32:00.614Z,9.50
2023-12-13T11:33:00.739Z,10.40
2023-12-13T11:34:00.753Z,10.40
2023-12-13T11:35:00.928Z,10.20
2023-12-13T11:36:01.079Z,9.20
2023-12-13T11:37:01.257Z,9.40
2023-12-13T11:38:01.595Z,10.60
2023-12-13T11:39:01.637Z,9.30
2023-12-13T11:40:01.826Z,10.80
2023-12-13T11:41:02.036Z,10.20
2023-12-13T11:42:02.172Z,10.60
2023-12-13T11:43:02.374Z,10.70
2023-12-13T11:44:02.588Z,10.50
2023-12-13T11:45:02.742Z,9.90
2023-12-13T11:46:02.903Z,10.30
2023-12-13T11:47:03.158Z,10.90
2023-12-13T11:48:03.389Z,9.90
2023-12-13T11:49:03.474Z,10.50
2023-12-13T11:50:04.717Z,9.80
2023-12-13T11:51:03.831Z,10.80
2023-12-13T11:52:04.009Z,10.90
2023-12-13T11:53:04.249Z,11.20
2023-12-13T11:54:04.368Z,11.10
2023-12-13T11:55:04.567Z,10.60
2023-12-13T11:56:04.802Z,11.10
2023-12-13T11:57:04.897Z,11.00
2023-12-13T11:58:05.091Z,10.10
2023-12-13T11:59:05.354Z,11.20
2023-12-13T12:00:05.515Z,11.10
2023-12-13T12:01:05.690Z,11.70
2023-12-13T12:02:05.902Z,11.90
2023-12-13T12:03:06.025Z,11.80
2023-12-13T12:04:06.273Z,10.70
2023-12-13T12:05:06.533Z,11.40
2023-12-13T12:06:06.605Z,12.30
2023-12-13T12:07:06.766Z,12.30
2023-12-13T12:08:06.927Z,11.20
2023-12-13T12:09:07.593Z,11.80
2023-12-13T12:10:07.325Z,12.10
2023-12-13T12:11:07.503Z,12.30
2023-12-13T12:12:07.662Z,12.60
2023-12-13T12:13:07.855Z,11.60
2023-12-13T12:14:08.100Z,12.40
2023-12-13T12:15:08.293Z,12.90
2023-12-13T12:16:08.437Z,11.20
2023-12-13T12:17:08.608Z,12.30
2023-12-13T12:18:08.847Z,11.90
2023-12-13T12:19:09.041Z,12.10
2023-12-13T12:20:09.172Z,12.60
2023-12-13T12:21:09.346Z,12.10
2023-12-13T12:22:09.523Z,13.30
2023-12-13T12:23:09.788Z,12.10
2023-12-13T12:24:09.898Z,12.20
2023-12-13T12:25:10.078Z,11.90
2023-12-13T12:26:10.255Z,12.80
2023-12-13T12:27:10.463Z,12.30
2023-12-13T12:28:10.604Z,12.80
2023-12-13T12:29:10.817Z,13.30
2023-12-13T12:30:11.031Z,13.00
2023-12-13T12:31:15.620Z,13.10
2023-12-13T12:32:12.437Z,13.40
2023-12-13T12:33:11.688Z,13.00
2023-12-13T12:34:11.781Z,14.90
2023-12-13T12:35:11.984Z,12.80
2023-12-13T12:36:12.098Z,12.40
2023-12-13T12:37:13.124Z,13.50
2023-12-13T12:38:12.484Z,12.80
2023-12-13T12:39:14.569Z,14.20
2023-12-13T12:40:12.833Z,13.40
2023-12-13T12:41:13.009Z,13.10
2023-12-13T12:42:13.180Z,14.20
2023-12-13T12:43:15.958Z,14.20
2023-12-13T12:44:13.546Z,13.70
2023-12-13T12:45:13.770Z,13.10
2023-12-13T12:46:13.928Z,14.40
2023-12-13T12:47:14.103Z,15.30
2023-12-13T12:48:14.358Z,13.60
2023-12-13T12:49:15.801Z,14.60
2023-12-13T12:50:15.358Z,15.10
2023-12-13T12:51:14.844Z,14.50
2023-12-13T12:52:15.006Z,13.90
2023-12-13T12:53:15.169Z,15.30
2023-12-13T12:54:15.384Z,14.40
2023-12-13T12:55:15.533Z,14.70
2023-12-13T12:56:15.762Z,14.10
2023-12-13T12:57:15.864Z,13.90
2023-12-13T12:58:16.074Z,13.90
2023-12-13T12:59:16.265Z,13.70
2023-12-13T13:00:16.435Z,16.50
2023-12-13T13:01:16.640Z,15.60
2023-12-13T13:02:16.842Z,14.90
2023-12-13T13:03:16.969Z,14.80